Terminal Aerodrome Forecast
Issued by NWS

Home | Current Version | Previous Version | Text Only | Print | Product List | Glossary On
Versions: 1 2 3 4 5 6 7 8 9 10 11 12 13 14 15 16 17 18 19 20 21 22 23 24 25 26 27
000
FTUS43 KGLD 261726
TAFMCK
TAF
KMCK 261726Z 2618/2718 28012G17KT P6SM BKN080
     FM262000 31019G29KT P6SM BKN080
     FM270100 35013KT P6SM BKN060
     FM270300 02011KT P6SM VCSH BKN050
     FM270700 06006KT P6SM VCSH FEW007 BKN030
     FM270900 VRB04KT P6SM VCSH SCT007 SCT015 BKN025
     FM271200 15006KT P6SM VCSH SCT007 BKN015
      TEMPO 2712/2716 4SM -SHSN BR BKN007
     FM271700 21009KT P6SM FEW015 SCT030 BKN060=

USA.gov is the U.S. government's official web portal to all federal, state and local government web resources and services.